createdAt,value
2019-04-23T00:00:30.618Z,0.00
2019-04-23T00:02:34.361Z,0.00
2019-04-23T00:03:38.882Z,0.00
2019-04-23T00:04:35.445Z,0.00
2019-04-23T00:06:07.005Z,0.00
2019-04-23T00:06:43.915Z,0.00
2019-04-23T00:07:48.333Z,0.00
2019-04-23T00:08:51.345Z,0.00
2019-04-23T00:09:39.787Z,0.00
2019-04-23T00:10:33.466Z,0.00
2019-04-23T00:11:40.992Z,0.00
2019-04-23T00:12:44.171Z,0.00
2019-04-23T00:13:45.366Z,0.00
2019-04-23T00:14:48.074Z,0.00
2019-04-23T00:15:40.314Z,0.00
2019-04-23T00:16:38.202Z,0.00
2019-04-23T00:17:42.228Z,0.00
2019-04-23T00:18:42.683Z,0.00
2019-04-23T00:19:39.689Z,0.00
2019-04-23T00:20:43.063Z,0.00
2019-04-23T00:21:44.376Z,0.00
2019-04-23T00:22:43.818Z,0.00
2019-04-23T00:23:47.981Z,0.00
2019-04-23T00:24:56.864Z,0.00
2019-04-23T00:26:42.671Z,0.00
2019-04-23T00:28:42.190Z,0.00
2019-04-23T00:29:51.411Z,0.00
2019-04-23T00:30:50.229Z,0.00
2019-04-23T00:31:36.281Z,0.00
2019-04-23T00:33:34.290Z,0.00
2019-04-23T00:34:42.456Z,0.00
2019-04-23T00:35:38.937Z,0.00
2019-04-23T00:36:42.354Z,0.00
2019-04-23T00:37:35.325Z,0.00
2019-04-23T00:38:38.420Z,0.00
2019-04-23T00:39:42.362Z,0.00
2019-04-23T00:40:40.625Z,0.00
2019-04-23T00:41:47.472Z,0.00
2019-04-23T00:42:42.866Z,0.00
2019-04-23T00:43:51.165Z,0.00
2019-04-23T00:46:45.283Z,0.00
2019-04-23T00:47:38.765Z,0.00
2019-04-23T00:49:41.442Z,0.00
2019-04-23T00:50:44.777Z,0.00
2019-04-23T00:51:38.326Z,0.00
2019-04-23T00:52:44.146Z,0.00
2019-04-23T00:53:32.876Z,0.00
2019-04-23T00:54:39.708Z,0.00
2019-04-23T00:55:42.735Z,0.00
2019-04-23T00:56:47.592Z,0.00
2019-04-23T00:58:46.475Z,0.00
2019-04-23T00:59:46.850Z,0.00
2019-04-23T01:00:41.854Z,0.00
2019-04-23T01:01:42.747Z,0.00
2019-04-23T01:03:33.796Z,0.00
2019-04-23T01:04:46.055Z,0.00
2019-04-23T01:06:37.903Z,0.00
2019-04-23T01:07:40.042Z,0.00
2019-04-23T01:08:36.770Z,0.00
2019-04-23T01:09:39.372Z,0.00
2019-04-23T01:10:46.272Z,0.00
2019-04-23T01:11:38.907Z,0.00
2019-04-23T01:14:41.037Z,0.00
2019-04-23T01:15:42.639Z,0.00
2019-04-23T01:16:37.990Z,0.00
2019-04-23T01:18:46.829Z,0.00
2019-04-23T01:19:37.493Z,0.00
2019-04-23T01:20:48.594Z,0.00
2019-04-23T01:21:18.048Z,0.00
2019-04-23T01:22:17.339Z,0.00
2019-04-23T01:23:20.692Z,0.00
2019-04-23T01:24:21.919Z,0.00
2019-04-23T01:25:27.532Z,0.00
2019-04-23T01:26:34.377Z,0.00
2019-04-23T01:27:54.603Z,0.00
2019-04-23T01:29:42.856Z,0.00
2019-04-23T01:30:40.876Z,0.00
2019-04-23T01:31:41.052Z,0.00
2019-04-23T01:32:55.193Z,0.00
2019-04-23T01:34:51.629Z,0.00
2019-04-23T01:35:43.197Z,0.00
2019-04-23T01:36:36.456Z,0.00
2019-04-23T01:37:43.355Z,0.00
2019-04-23T01:38:45.521Z,0.00
2019-04-23T01:39:50.415Z,0.00
2019-04-23T01:40:40.367Z,0.00
2019-04-23T01:41:50.739Z,0.00
2019-04-23T01:43:41.081Z,0.00
2019-04-23T01:44:50.850Z,0.00
2019-04-23T01:45:35.573Z,0.00
2019-04-23T01:46:42.055Z,0.00
2019-04-23T01:47:45.388Z,0.00
2019-04-23T01:48:48.616Z,0.00
2019-04-23T01:50:01.890Z,0.00
2019-04-23T01:50:48.333Z,0.00
2019-04-23T01:51:49.670Z,0.00
2019-04-23T01:52:45.622Z,0.00
2019-04-23T01:53:45.559Z,0.00
2019-04-23T01:54:48.376Z,0.00
2019-04-23T01:56:41.659Z,0.00
2019-04-23T01:57:46.945Z,0.00
2019-04-23T01:58:45.094Z,0.00
2019-04-23T01:59:53.152Z,0.00
2019-04-23T02:00:41.236Z,0.00
2019-04-23T02:01:48.319Z,0.00
2019-04-23T02:02:49.951Z,0.00
2019-04-23T02:03:42.724Z,0.00
2019-04-23T02:04:45.996Z,0.00
2019-04-23T02:05:41.539Z,0.00
2019-04-23T02:06:45.071Z,0.00
2019-04-23T02:08:48.704Z,0.00
2019-04-23T02:09:51.574Z,0.00
2019-04-23T02:11:49.061Z,0.00
2019-04-23T02:12:54.010Z,0.00
2019-04-23T02:13:43.972Z,0.00
2019-04-23T02:14:44.793Z,0.00
2019-04-23T02:15:40.906Z,0.00
2019-04-23T02:16:44.117Z,0.00
2019-04-23T02:17:47.188Z,0.00
2019-04-23T02:18:45.451Z,0.00
2019-04-23T02:19:46.731Z,0.00
2019-04-23T02:20:43.107Z,0.00
2019-04-23T02:21:48.770Z,0.00
2019-04-23T02:22:38.198Z,0.00
2019-04-23T02:23:44.397Z,0.00
2019-04-23T02:24:47.918Z,0.00
2019-04-23T02:25:54.221Z,0.00
2019-04-23T02:26:46.760Z,0.00
2019-04-23T02:27:43.797Z,0.00
2019-04-23T02:28:46.319Z,0.00
2019-04-23T02:29:51.358Z,0.00
2019-04-23T02:32:05.182Z,0.00
2019-04-23T02:32:59.463Z,0.00
2019-04-23T02:33:53.438Z,0.00
2019-04-23T02:35:56.299Z,0.00
2019-04-23T02:37:02.163Z,0.00
2019-04-23T02:38:00.302Z,0.00
2019-04-23T02:41:57.969Z,0.00
2019-04-23T02:43:01.768Z,0.00
2019-04-23T02:43:51.021Z,0.00
2019-04-23T02:44:51.268Z,0.00
2019-04-23T02:45:58.795Z,0.00
2019-04-23T02:46:55.989Z,0.00
2019-04-23T02:47:55.405Z,0.00
2019-04-23T02:48:54.467Z,0.00
2019-04-23T02:50:01.572Z,0.00
2019-04-23T02:51:54.467Z,0.00
2019-04-23T02:52:47.120Z,0.00
2019-04-23T02:55:59.565Z,0.00
2019-04-23T02:57:50.384Z,0.00
2019-04-23T03:00:12.434Z,0.00
2019-04-23T03:01:18.294Z,0.00
2019-04-23T03:03:01.196Z,0.00
2019-04-23T03:06:08.929Z,0.00
2019-04-23T03:07:01.136Z,0.00
2019-04-23T03:09:51.810Z,0.00
2019-04-23T03:10:59.784Z,0.00
2019-04-23T03:14:12.143Z,0.00
2019-04-23T03:14:59.172Z,0.00
2019-04-23T03:16:04.173Z,0.00
2019-04-23T03:17:57.569Z,0.00
2019-04-23T03:18:53.626Z,0.00
2019-04-23T03:19:58.536Z,0.00
2019-04-23T03:21:05.905Z,0.00
2019-04-23T03:24:55.123Z,0.00
2019-04-23T03:26:14.081Z,0.00
2019-04-23T03:27:49.914Z,0.00
2019-04-23T03:28:57.646Z,0.00
2019-04-23T03:37:55.738Z,0.00
2019-04-23T03:40:59.491Z,0.00
2019-04-23T03:41:54.152Z,0.00
2019-04-23T03:43:02.376Z,0.00
2019-04-23T03:44:57.763Z,4.00
2019-04-23T03:46:54.816Z,0.00
2019-04-23T03:47:56.237Z,4.00
2019-04-23T03:49:55.687Z,4.00
2019-04-23T03:50:44.009Z,4.00
2019-04-23T03:52:44.386Z,4.00
2019-04-23T03:56:02.255Z,8.00
2019-04-23T03:57:12.524Z,12.00
2019-04-23T03:58:59.648Z,16.00
2019-04-23T04:00:34.381Z,20.00
2019-04-23T04:01:58.109Z,28.00
2019-04-23T04:04:45.148Z,36.00
2019-04-23T04:06:20.868Z,48.00
2019-04-23T04:07:05.432Z,52.00
2019-04-23T04:08:07.419Z,60.00
2019-04-23T04:09:03.144Z,68.00
2019-04-23T04:11:11.483Z,88.00
2019-04-23T04:11:50.600Z,96.00
2019-04-23T04:12:49.999Z,108.00
2019-04-23T04:14:01.178Z,120.00
2019-04-23T04:14:57.599Z,132.00
2019-04-23T04:18:01.603Z,176.00
2019-04-23T04:18:57.313Z,192.00
2019-04-23T04:23:09.355Z,268.00
2019-04-23T04:24:01.331Z,288.00
2019-04-23T04:24:52.049Z,308.00
2019-04-23T04:26:57.984Z,352.00
2019-04-23T04:28:12.294Z,376.00
2019-04-23T04:29:03.705Z,400.00
2019-04-23T04:29:54.972Z,424.00
2019-04-23T04:30:48.067Z,452.00
2019-04-23T04:31:52.143Z,476.00
2019-04-23T04:33:19.563Z,500.00
2019-04-23T04:35:12.929Z,556.00
2019-04-23T04:36:13.162Z,580.00
2019-04-23T04:37:18.476Z,608.00
2019-04-23T04:38:05.741Z,640.00
2019-04-23T04:39:03.074Z,668.00
2019-04-23T04:46:04.976Z,864.00
2019-04-23T04:46:50.529Z,892.00
2019-04-23T04:47:44.547Z,916.00
2019-04-23T04:48:56.875Z,940.00
2019-04-23T04:49:55.870Z,964.00
2019-04-23T04:52:11.354Z,1024.00
2019-04-23T04:54:51.887Z,1116.00
2019-04-23T04:55:55.638Z,1144.00
2019-04-23T04:56:51.308Z,1176.00
2019-04-23T04:57:55.980Z,1204.00
2019-04-23T04:58:52.860Z,1232.00
2019-04-23T05:00:01.734Z,1256.00
2019-04-23T05:01:03.985Z,1284.00
2019-04-23T05:02:03.721Z,1308.00
2019-04-23T05:03:43.337Z,1360.00
2019-04-23T05:04:55.974Z,1392.00
2019-04-23T05:06:11.340Z,1436.00
2019-04-23T05:07:02.486Z,1608.00
2019-04-23T05:07:54.838Z,1756.00
2019-04-23T05:08:58.538Z,1756.00
2019-04-23T05:13:08.996Z,2068.00
2019-04-23T05:13:54.875Z,1940.00
2019-04-23T05:15:25.762Z,1804.00
2019-04-23T05:15:55.111Z,1708.00
2019-04-23T05:18:53.731Z,1736.00
2019-04-23T05:20:07.408Z,1760.00
2019-04-23T05:20:53.491Z,1784.00
2019-04-23T05:21:55.730Z,1816.00
2019-04-23T05:23:00.171Z,1840.00
2019-04-23T05:24:48.495Z,1892.00
2019-04-23T05:25:38.098Z,1908.00
2019-04-23T05:26:39.217Z,1928.00
2019-04-23T05:27:55.223Z,1944.00
2019-04-23T05:29:54.386Z,1984.00
2019-04-23T05:30:52.186Z,2012.00
2019-04-23T05:31:42.684Z,2036.00
2019-04-23T05:32:48.893Z,2060.00
2019-04-23T05:33:56.870Z,2072.00
2019-04-23T05:34:48.623Z,2096.00
2019-04-23T05:36:09.104Z,2116.00
2019-04-23T05:36:51.999Z,2136.00
2019-04-23T05:38:02.560Z,2160.00
2019-04-23T05:39:13.375Z,2176.00
2019-04-23T05:39:49.271Z,2196.00
2019-04-23T05:41:50.467Z,2228.00
2019-04-23T05:42:49.866Z,2252.00
2019-04-23T05:43:48.142Z,2272.00
2019-04-23T05:44:50.276Z,2296.00
2019-04-23T05:45:46.575Z,2312.00
2019-04-23T05:46:49.084Z,2336.00
2019-04-23T05:47:50.548Z,2352.00
2019-04-23T05:48:58.043Z,2372.00
2019-04-23T05:53:47.226Z,2484.00
2019-04-23T05:54:52.398Z,2500.00
2019-04-23T05:55:51.644Z,2524.00
2019-04-23T05:57:44.646Z,2572.00
2019-04-23T05:58:55.375Z,2596.00
2019-04-23T05:59:46.929Z,2616.00
2019-04-23T06:01:54.172Z,2668.00
2019-04-23T06:02:53.867Z,2692.00
2019-04-23T06:03:49.021Z,2712.00
2019-04-23T06:06:54.189Z,2772.00
2019-04-23T06:07:47.879Z,2796.00
2019-04-23T06:08:46.020Z,2820.00
2019-04-23T06:09:48.005Z,2840.00
2019-04-23T06:10:53.925Z,2856.00
2019-04-23T06:12:43.540Z,2904.00
2019-04-23T06:13:56.327Z,2928.00
2019-04-23T06:14:50.970Z,2952.00
2019-04-23T06:15:46.779Z,2972.00
2019-04-23T06:17:03.850Z,2988.00
2019-04-23T06:17:46.647Z,3016.00
2019-04-23T06:20:55.814Z,3072.00
2019-04-23T06:22:51.158Z,3112.00
2019-04-23T06:24:47.068Z,3164.00
2019-04-23T06:25:57.675Z,3184.00
2019-04-23T06:27:49.401Z,3232.00
2019-04-23T06:28:48.733Z,3256.00
2019-04-23T06:29:46.506Z,3276.00
2019-04-23T06:31:01.670Z,3296.00
2019-04-23T06:31:50.698Z,3300.00
2019-04-23T06:32:42.864Z,3328.00
2019-04-23T06:33:48.056Z,3360.00
2019-04-23T06:34:56.590Z,3368.00
2019-04-23T06:35:51.598Z,3392.00
2019-04-23T06:36:46.050Z,3432.00
2019-04-23T06:39:17.720Z,3468.00
2019-04-23T06:39:48.340Z,3488.00
2019-04-23T06:40:48.762Z,3504.00
2019-04-23T06:41:53.083Z,3548.00
2019-04-23T06:42:49.337Z,3564.00
2019-04-23T06:43:54.695Z,3580.00
2019-04-23T06:44:45.761Z,3604.00
2019-04-23T06:45:45.572Z,3648.00
2019-04-23T06:46:50.563Z,3684.00
2019-04-23T06:47:52.739Z,3708.00
2019-04-23T06:48:49.133Z,3740.00
2019-04-23T06:50:54.561Z,3788.00
2019-04-23T06:51:52.214Z,3836.00
2019-04-23T06:52:39.794Z,3856.00
2019-04-23T06:53:48.623Z,3912.00
2019-04-23T06:54:51.320Z,3924.00
2019-04-23T06:55:49.245Z,3952.00
2019-04-23T06:56:53.021Z,3992.00
2019-04-23T06:57:52.191Z,4024.00
2019-04-23T06:58:42.904Z,4036.00
2019-04-23T07:00:02.357Z,4072.00
2019-04-23T07:00:52.479Z,4100.00
2019-04-23T07:01:53.080Z,4116.00
2019-04-23T07:02:51.265Z,4168.00
2019-04-23T07:03:51.861Z,4160.00
2019-04-23T07:05:12.162Z,4196.00
2019-04-23T07:05:53.477Z,4228.00
2019-04-23T07:06:58.184Z,4248.00
2019-04-23T07:09:05.376Z,4284.00
2019-04-23T07:09:43.880Z,4340.00
2019-04-23T07:10:49.138Z,4352.00
2019-04-23T07:11:43.017Z,4396.00
2019-04-23T07:12:47.176Z,4424.00
2019-04-23T07:13:53.482Z,4432.00
2019-04-23T07:16:01.178Z,4480.00
2019-04-23T07:16:46.971Z,4492.00
2019-04-23T07:17:41.014Z,4556.00
2019-04-23T07:18:48.939Z,4560.00
2019-04-23T07:20:01.312Z,4588.00
2019-04-23T07:20:49.308Z,4632.00
2019-04-23T07:21:51.361Z,4656.00
2019-04-23T07:22:53.777Z,4696.00
2019-04-23T07:23:56.862Z,4712.00
2019-04-23T07:24:47.347Z,4732.00
2019-04-23T07:25:48.538Z,4772.00
2019-04-23T07:26:55.784Z,4796.00
2019-04-23T07:27:40.918Z,4760.00
2019-04-23T07:29:09.992Z,4776.00
2019-04-23T07:30:53.432Z,4860.00
2019-04-23T07:31:52.171Z,4896.00
2019-04-23T07:32:52.005Z,4852.00
2019-04-23T07:33:52.214Z,4852.00
2019-04-23T07:34:52.553Z,4912.00
2019-04-23T07:35:47.662Z,4964.00
2019-04-23T07:36:47.913Z,4940.00
2019-04-23T07:37:48.636Z,4980.00
2019-04-23T07:38:54.946Z,5012.00
2019-04-23T07:39:58.978Z,5020.00
2019-04-23T07:40:48.076Z,5052.00
2019-04-23T07:41:57.541Z,5060.00
2019-04-23T07:43:03.547Z,5104.00
2019-04-23T07:43:54.755Z,5120.00
2019-04-23T07:44:54.923Z,5252.00
2019-04-23T07:45:55.179Z,5280.00
2019-04-23T07:47:00.994Z,5284.00
2019-04-23T07:47:53.498Z,5332.00
2019-04-23T07:48:40.791Z,5388.00
2019-04-23T07:49:48.888Z,5384.00
2019-04-23T07:50:47.923Z,5492.00
2019-04-23T07:51:55.125Z,5428.00
2019-04-23T07:52:51.461Z,5380.00
2019-04-23T07:53:53.520Z,5452.00
2019-04-23T07:54:58.692Z,5520.00
2019-04-23T07:55:53.173Z,5572.00
2019-04-23T07:56:53.601Z,5684.00
2019-04-23T07:57:49.555Z,5520.00
2019-04-23T07:58:39.353Z,5504.00
2019-04-23T07:59:48.735Z,5648.00
2019-04-23T08:01:14.139Z,5624.00
2019-04-23T08:01:49.174Z,5616.00
2019-04-23T08:02:50.137Z,6016.00
2019-04-23T08:03:48.185Z,5816.00
2019-04-23T08:05:04.785Z,5876.00
2019-04-23T08:05:44.066Z,6352.00
2019-04-23T08:06:49.131Z,8956.00
2019-04-23T08:07:54.222Z,8200.00
2019-04-23T08:08:48.713Z,6316.00
2019-04-23T08:09:53.194Z,5920.00
2019-04-23T08:11:01.496Z,13032.00
2019-04-23T08:12:02.890Z,15288.00
2019-04-23T08:12:48.102Z,6348.00
2019-04-23T08:14:55.298Z,7092.00
2019-04-23T08:16:42.436Z,16544.00
2019-04-23T08:17:43.094Z,0.00
2019-04-23T08:20:49.614Z,0.00
2019-04-23T08:21:46.310Z,2880.00
2019-04-23T08:22:45.471Z,60192.00
2019-04-23T08:23:49.636Z,15328.00
2019-04-23T08:26:50.882Z,24448.00
2019-04-23T08:27:45.221Z,12224.00
2019-04-23T08:28:59.646Z,20096.00
2019-04-23T08:29:36.323Z,35040.00
2019-04-23T08:30:46.563Z,16960.00
2019-04-23T08:31:50.381Z,23936.00
2019-04-23T08:32:47.351Z,14924.00
2019-04-23T08:33:49.709Z,13284.00
2019-04-23T08:35:51.422Z,10044.00
2019-04-23T08:36:50.017Z,3020.00
2019-04-23T08:38:53.887Z,6932.00
2019-04-23T08:40:55.650Z,6940.00
2019-04-23T08:42:03.617Z,6896.00
2019-04-23T08:42:52.807Z,6964.00
2019-04-23T08:45:00.887Z,7020.00
2019-04-23T08:45:46.291Z,7032.00
2019-04-23T08:46:57.469Z,6940.00
2019-04-23T08:47:59.132Z,7096.00
2019-04-23T08:48:50.006Z,7136.00
2019-04-23T08:49:56.726Z,7188.00
2019-04-23T08:50:50.258Z,7188.00
2019-04-23T08:51:57.058Z,7200.00
2019-04-23T08:52:56.144Z,7256.00
2019-04-23T08:53:47.998Z,7248.00
2019-04-23T08:55:51.213Z,7380.00
2019-04-23T08:56:50.386Z,7412.00
2019-04-23T08:57:43.060Z,7408.00
2019-04-23T08:58:43.616Z,7452.00
2019-04-23T09:00:51.904Z,7476.00
2019-04-23T09:01:58.034Z,7484.00
2019-04-23T09:02:57.680Z,7504.00
2019-04-23T09:03:39.173Z,7520.00
2019-04-23T09:06:53.335Z,7676.00
2019-04-23T09:07:58.532Z,7716.00
2019-04-23T09:08:42.330Z,7768.00
2019-04-23T09:09:50.863Z,7756.00
2019-04-23T09:12:01.255Z,7856.00
2019-04-23T09:13:32.094Z,7884.00
2019-04-23T09:14:52.314Z,7976.00
2019-04-23T09:15:51.508Z,8056.00
2019-04-23T09:16:54.322Z,8104.00
2019-04-23T09:17:47.625Z,8112.00
2019-04-23T09:18:47.306Z,8076.00
2019-04-23T09:20:05.378Z,8280.00
2019-04-23T09:20:41.130Z,8300.00
2019-04-23T09:21:59.224Z,8364.00
2019-04-23T09:22:46.549Z,8448.00
2019-04-23T09:23:46.937Z,8504.00
2019-04-23T09:24:47.335Z,8408.00
2019-04-23T09:25:47.803Z,8352.00
2019-04-23T09:26:50.484Z,8624.00
2019-04-23T09:27:45.232Z,8528.00
2019-04-23T09:29:54.110Z,8444.00
2019-04-23T09:30:49.257Z,8568.00
2019-04-23T09:32:07.461Z,8612.00
2019-04-23T09:32:44.965Z,8588.00
2019-04-23T09:34:52.729Z,8760.00
2019-04-23T09:35:48.643Z,8552.00
2019-04-23T09:36:51.056Z,8692.00
2019-04-23T09:37:47.196Z,8628.00
2019-04-23T09:39:51.274Z,8648.00
2019-04-23T09:41:43.570Z,9024.00
2019-04-23T09:43:48.549Z,8876.00
2019-04-23T09:44:58.099Z,8996.00
2019-04-23T09:45:51.985Z,9040.00
2019-04-23T09:47:53.802Z,9232.00
2019-04-23T09:48:54.210Z,8984.00
2019-04-23T09:49:50.201Z,9108.00
2019-04-23T09:51:51.188Z,9052.00
2019-04-23T09:53:01.635Z,9060.00
2019-04-23T09:53:53.777Z,9268.00
2019-04-23T09:56:01.546Z,9400.00
2019-04-23T09:56:47.794Z,9604.00
2019-04-23T09:57:54.015Z,9580.00
2019-04-23T09:58:46.330Z,9652.00
2019-04-23T10:01:39.365Z,9788.00
2019-04-23T10:02:34.077Z,10108.00
2019-04-23T10:03:36.329Z,10036.00
2019-04-23T10:05:30.855Z,10184.00
2019-04-23T10:06:24.959Z,10088.00
2019-04-23T10:07:30.052Z,10216.00
2019-04-23T10:08:27.933Z,10364.00
2019-04-23T10:11:20.246Z,10632.00
2019-04-23T10:12:22.028Z,10552.00
2019-04-23T10:14:20.805Z,11012.00
2019-04-23T10:16:23.355Z,11048.00
2019-04-23T10:17:20.270Z,11016.00
2019-04-23T10:18:20.266Z,10800.00
2019-04-23T10:20:22.534Z,11656.00
2019-04-23T10:21:21.477Z,11676.00
2019-04-23T10:23:21.277Z,12016.00
2019-04-23T10:24:21.066Z,11864.00
2019-04-23T10:25:21.008Z,12272.00
2019-04-23T10:26:21.871Z,12476.00
2019-04-23T10:27:21.108Z,12748.00
2019-04-23T10:28:22.130Z,12904.00
2019-04-23T10:29:20.317Z,13132.00
2019-04-23T10:31:20.936Z,13232.00
2019-04-23T10:34:21.155Z,16832.00
2019-04-23T10:35:30.350Z,18880.00
2019-04-23T10:36:23.906Z,23072.00
2019-04-23T10:37:31.946Z,40128.00
2019-04-23T10:38:22.095Z,58208.00
2019-04-23T10:39:25.844Z,66464.00
2019-04-23T10:40:26.283Z,65536.00
2019-04-23T10:41:20.400Z,67456.00
2019-04-23T10:42:21.885Z,69088.00
2019-04-23T10:43:20.734Z,60320.00
2019-04-23T10:44:21.486Z,73120.00
2019-04-23T10:45:37.019Z,72672.00
2019-04-23T10:46:44.211Z,72608.00
2019-04-23T10:47:45.364Z,74528.00
2019-04-23T10:49:55.433Z,74240.00
2019-04-23T10:51:06.191Z,70624.00
2019-04-23T10:52:56.695Z,71488.00
2019-04-23T10:53:56.987Z,70432.00
2019-04-23T10:54:45.337Z,72352.00
2019-04-23T10:56:53.580Z,69472.00
2019-04-23T10:57:45.848Z,70656.00
2019-04-23T10:58:46.168Z,74592.00
2019-04-23T10:59:43.074Z,73440.00
2019-04-23T11:01:04.459Z,73248.00
2019-04-23T11:01:55.470Z,75168.00
2019-04-23T11:03:11.971Z,74560.00
2019-04-23T11:06:06.950Z,77344.00
2019-04-23T11:06:53.624Z,77056.00
2019-04-23T11:07:44.036Z,77472.00
2019-04-23T11:08:50.128Z,78464.00
2019-04-23T11:10:50.690Z,77088.00
2019-04-23T11:11:52.587Z,76448.00
2019-04-23T11:12:46.420Z,75936.00
2019-04-23T11:14:49.943Z,77472.00
2019-04-23T11:19:56.944Z,79680.00
2019-04-23T11:21:58.426Z,78464.00
2019-04-23T11:22:56.243Z,81088.00
2019-04-23T11:23:51.880Z,80768.00
2019-04-23T11:24:48.364Z,81056.00
2019-04-23T11:25:42.796Z,81568.00
2019-04-23T11:26:52.855Z,85088.00
2019-04-23T11:28:20.928Z,88128.00
2019-04-23T11:28:44.864Z,83648.00
2019-04-23T11:31:09.347Z,86496.00
2019-04-23T11:31:59.025Z,82816.00
2019-04-23T11:33:00.817Z,78912.00
2019-04-23T11:33:50.845Z,82304.00
2019-04-23T11:36:01.305Z,78432.00
2019-04-23T11:38:06.569Z,82496.00
2019-04-23T11:38:54.569Z,84800.00
2019-04-23T11:39:57.301Z,80672.00
2019-04-23T11:40:41.790Z,81056.00
2019-04-23T11:44:56.572Z,83712.00
2019-04-23T11:49:14.554Z,78592.00
2019-04-23T11:51:26.761Z,79136.00
2019-04-23T11:52:08.411Z,81856.00
2019-04-23T11:53:06.679Z,81472.00
2019-04-23T11:54:53.721Z,84576.00
2019-04-23T11:57:22.014Z,80800.00
2019-04-23T11:57:59.380Z,80896.00
2019-04-23T11:58:45.841Z,80992.00
2019-04-23T12:00:05.625Z,79200.00
2019-04-23T12:02:49.742Z,79200.00
2019-04-23T12:03:58.717Z,78336.00
2019-04-23T12:05:00.832Z,79072.00
2019-04-23T12:05:50.376Z,77984.00
2019-04-23T12:07:53.784Z,75232.00
2019-04-23T12:12:44.737Z,75264.00
2019-04-23T12:13:51.474Z,77056.00
2019-04-23T12:14:48.040Z,78656.00
2019-04-23T12:17:05.646Z,71968.00
2019-04-23T12:17:55.921Z,73248.00
2019-04-23T12:20:41.187Z,78624.00
2019-04-23T12:21:53.183Z,75936.00
2019-04-23T12:23:03.021Z,76832.00
2019-04-23T12:24:01.182Z,76352.00
2019-04-23T12:26:13.664Z,75488.00
2019-04-23T12:26:53.869Z,76384.00
2019-04-23T12:28:53.232Z,72960.00
2019-04-23T12:32:01.851Z,71488.00
2019-04-23T12:32:53.770Z,73440.00
2019-04-23T12:33:51.982Z,71392.00
2019-04-23T12:35:46.577Z,68992.00
2019-04-23T12:36:45.488Z,67808.00
2019-04-23T12:37:45.032Z,68704.00
2019-04-23T12:38:49.513Z,69120.00
2019-04-23T12:39:56.734Z,71072.00
2019-04-23T12:40:52.633Z,70048.00
2019-04-23T12:41:52.737Z,65984.00
2019-04-23T12:43:49.994Z,65280.00
2019-04-23T12:44:55.136Z,66656.00
2019-04-23T12:45:56.567Z,66688.00
2019-04-23T12:46:57.618Z,67936.00
2019-04-23T12:48:15.759Z,67328.00
2019-04-23T12:48:57.255Z,66752.00
2019-04-23T12:52:05.116Z,64480.00
2019-04-23T12:54:06.990Z,59424.00
2019-04-23T12:55:43.941Z,56960.00
2019-04-23T12:57:52.321Z,61856.00
2019-04-23T12:58:41.556Z,61760.00
2019-04-23T12:59:50.175Z,65472.00
2019-04-23T13:00:39.560Z,64512.00
2019-04-23T13:01:55.930Z,64256.00
2019-04-23T13:03:45.517Z,64768.00
2019-04-23T13:04:51.581Z,66016.00
2019-04-23T13:05:36.059Z,64096.00
2019-04-23T13:06:50.920Z,65376.00
2019-04-23T13:09:53.190Z,66976.00
2019-04-23T13:10:45.300Z,64480.00
2019-04-23T13:11:49.942Z,66592.00
2019-04-23T13:13:04.597Z,68896.00
2019-04-23T13:13:56.391Z,70880.00
2019-04-23T13:14:57.239Z,70432.00
2019-04-23T13:15:48.541Z,66656.00
2019-04-23T13:17:04.212Z,65664.00
2019-04-23T13:18:49.624Z,64864.00
2019-04-23T13:19:54.700Z,64192.00
2019-04-23T13:20:42.601Z,67040.00
2019-04-23T13:22:00.226Z,65568.00
2019-04-23T13:22:57.754Z,62784.00
2019-04-23T13:23:47.490Z,61984.00
2019-04-23T13:24:40.761Z,66272.00
2019-04-23T13:26:44.674Z,62720.00
2019-04-23T13:28:02.745Z,64160.00
2019-04-23T13:28:45.226Z,63744.00
2019-04-23T13:30:01.063Z,60320.00
2019-04-23T13:30:56.874Z,59616.00
2019-04-23T13:31:52.338Z,56128.00
2019-04-23T13:32:57.530Z,52288.00
2019-04-23T13:35:02.606Z,39200.00
2019-04-23T13:36:53.534Z,42592.00
2019-04-23T13:38:00.161Z,47008.00
2019-04-23T13:38:47.422Z,48160.00
2019-04-23T13:39:52.978Z,49888.00
2019-04-23T13:40:59.780Z,49792.00
2019-04-23T13:41:45.803Z,49760.00
2019-04-23T13:42:52.554Z,49280.00
2019-04-23T13:43:47.861Z,48736.00
2019-04-23T13:44:54.760Z,50880.00
2019-04-23T13:46:49.491Z,53216.00
2019-04-23T13:48:06.247Z,56576.00
2019-04-23T13:48:47.025Z,57600.00
2019-04-23T13:50:59.926Z,59264.00
2019-04-23T13:51:47.232Z,55840.00
2019-04-23T13:55:45.503Z,57728.00
2019-04-23T13:57:25.749Z,56384.00
2019-04-23T13:58:51.292Z,54848.00
2019-04-23T13:59:54.057Z,56352.00
2019-04-23T14:01:00.907Z,55808.00
2019-04-23T14:01:46.654Z,56160.00
2019-04-23T14:02:52.548Z,55872.00
2019-04-23T14:03:50.584Z,55616.00
2019-04-23T14:05:04.543Z,54208.00
2019-04-23T14:05:51.203Z,53216.00
2019-04-23T14:06:53.875Z,51392.00
2019-04-23T14:07:54.536Z,49248.00
2019-04-23T14:10:51.905Z,47648.00
2019-04-23T14:11:47.900Z,47424.00
2019-04-23T14:13:10.529Z,48512.00
2019-04-23T14:14:22.378Z,49280.00
2019-04-23T14:16:59.745Z,42816.00
2019-04-23T14:18:17.022Z,43168.00
2019-04-23T14:19:53.519Z,38080.00
2019-04-23T14:20:47.237Z,34112.00
2019-04-23T14:21:59.331Z,29184.00
2019-04-23T14:25:06.052Z,19200.00
2019-04-23T14:26:51.795Z,22176.00
2019-04-23T14:27:58.285Z,25920.00
2019-04-23T14:29:55.994Z,28288.00
2019-04-23T14:30:59.269Z,28992.00
2019-04-23T14:31:54.922Z,30560.00
2019-04-23T14:32:54.257Z,32928.00
2019-04-23T14:34:03.594Z,36544.00
2019-04-23T14:35:04.241Z,40384.00
2019-04-23T14:35:53.651Z,38848.00
2019-04-23T14:37:00.996Z,40992.00
2019-04-23T14:38:09.227Z,42784.00
2019-04-23T14:38:54.473Z,40352.00
2019-04-23T14:39:57.413Z,41344.00
2019-04-23T14:41:04.621Z,44352.00
2019-04-23T14:41:54.011Z,45056.00
2019-04-23T14:43:04.303Z,46400.00
2019-04-23T14:43:57.888Z,47200.00
2019-04-23T14:45:04.902Z,46976.00
2019-04-23T14:46:18.703Z,46848.00
2019-04-23T14:47:59.129Z,44800.00
2019-04-23T14:49:09.151Z,45888.00
2019-04-23T14:50:17.088Z,44000.00
2019-04-23T14:50:51.961Z,46048.00
2019-04-23T14:51:49.735Z,42368.00
2019-04-23T14:53:00.419Z,43136.00
2019-04-23T14:53:47.908Z,45952.00
2019-04-23T14:55:35.908Z,46912.00
2019-04-23T14:55:56.900Z,46112.00
2019-04-23T14:56:52.602Z,45216.00
2019-04-23T14:58:00.389Z,44960.00
2019-04-23T14:59:57.375Z,43552.00
2019-04-23T15:01:07.594Z,41248.00
2019-04-23T15:03:01.514Z,40928.00
2019-04-23T15:03:50.528Z,40384.00
2019-04-23T15:04:56.510Z,41056.00
2019-04-23T15:06:05.018Z,40640.00
2019-04-23T15:07:51.272Z,36448.00
2019-04-23T15:08:58.610Z,36736.00
2019-04-23T15:11:06.589Z,35904.00
2019-04-23T15:12:04.842Z,36512.00
2019-04-23T15:12:52.311Z,37632.00
2019-04-23T15:13:51.948Z,39520.00
2019-04-23T15:15:02.690Z,40000.00
2019-04-23T15:16:02.597Z,40352.00
2019-04-23T15:16:54.690Z,39776.00
2019-04-23T15:18:01.731Z,39392.00
2019-04-23T15:19:02.638Z,38368.00
2019-04-23T15:21:10.224Z,36768.00
2019-04-23T15:23:17.016Z,35712.00
2019-04-23T15:24:00.465Z,35520.00
2019-04-23T15:25:06.912Z,35392.00
2019-04-23T15:26:41.147Z,34368.00
2019-04-23T15:28:32.654Z,33216.00
2019-04-23T15:29:47.426Z,32352.00
2019-04-23T15:31:00.722Z,31712.00
2019-04-23T15:31:55.720Z,31136.00
2019-04-23T15:33:07.562Z,30976.00
2019-04-23T15:34:00.954Z,31168.00
2019-04-23T15:35:01.287Z,30208.00
2019-04-23T15:36:12.945Z,29664.00
2019-04-23T15:37:00.880Z,28512.00
2019-04-23T15:38:26.740Z,27104.00
2019-04-23T15:39:07.945Z,27488.00
2019-04-23T15:40:04.316Z,26368.00
2019-04-23T15:40:53.962Z,25088.00
2019-04-23T15:41:59.221Z,26240.00
2019-04-23T15:43:02.796Z,26496.00
2019-04-23T15:43:57.135Z,26080.00
2019-04-23T15:44:56.023Z,26944.00
2019-04-23T15:45:53.914Z,27136.00
2019-04-23T15:47:14.508Z,27296.00
2019-04-23T15:47:56.510Z,26432.00
2019-04-23T15:49:05.604Z,25664.00
2019-04-23T15:50:03.540Z,24000.00
2019-04-23T15:50:56.058Z,24704.00
2019-04-23T15:53:56.438Z,23936.00
2019-04-23T15:54:56.756Z,23616.00
2019-04-23T15:56:07.512Z,23136.00